Time;durP1;ratioP1;P1;durP2;ratioP2;P2;SDS_P1;SDS_P2;PMS_P1;PMS_P2;Temp;Humidity;BMP_temperature;BMP_pressure;BME280_temperature;BME280_humidity;BME280_pressure;Samples;Min_cycle;Max_cycle;Signal;HPM_P1;HPM_P2
2023/06/05 00:00:47;;;;;;;;;15.25;12.50;;;;;;;;5030663;28;8884;-70
2023/06/05 00:03:12;;;;;;;;;15.50;15.50;;;;;;;;5030721;28;8819;-70
2023/06/05 00:05:37;;;;;;;;;20.75;17.00;;;;;;;;5030868;28;8811;-70
2023/06/05 00:08:02;;;;;;;;;16.00;14.25;;;;;;;;5045563;28;8808;-70
2023/06/05 00:10:28;;;;;;;;;15.75;13.00;;;;;;;;5030553;28;8780;-70
2023/06/05 00:12:53;;;;;;;;;12.50;12.50;;;;;;;;5030349;28;8780;-70
2023/06/05 00:15:21;;;;;;;;;16.00;12.00;;;;;;;;5029187;28;9609;-69
2023/06/05 00:17:47;;;;;;;;;11.00;11.00;;;;;;;;5030699;28;9559;-70
2023/06/05 00:20:12;;;;;;;;;11.00;11.00;;;;;;;;5030466;28;10091;-70
2023/06/05 00:22:38;;;;;;;;;10.50;8.00;;;;;;;;5062560;28;8861;-71
2023/06/05 00:25:04;;;;;;;;;10.00;8.50;;;;;;;;5028730;28;8832;-70
2023/06/05 00:27:30;;;;;;;;;12.50;11.00;;;;;;;;5030195;28;10252;-69
2023/06/05 00:29:55;;;;;;;;;10.25;9.00;;;;;;;;5030716;28;8788;-71
2023/06/05 00:32:20;;;;;;;;;8.00;7.50;;;;;;;;5030338;28;8784;-71
2023/06/05 00:34:46;;;;;;;;;11.50;10.25;;;;;;;;5030404;28;8784;-71
2023/06/05 00:37:13;;;;;;;;;11.50;11.00;;;;;;;;5030303;28;8815;-71
2023/06/05 00:39:38;;;;;;;;;8.00;8.00;;;;;;;;5030403;28;8799;-70
2023/06/05 00:42:04;;;;;;;;;9.75;8.00;;;;;;;;5030153;28;10078;-70
2023/06/05 00:44:29;;;;;;;;;12.00;11.75;;;;;;;;5028619;28;8837;-70
2023/06/05 00:46:54;;;;;;;;;9.75;8.00;;;;;;;;5030408;28;8799;-71
2023/06/05 00:49:20;;;;;;;;;9.50;8.75;;;;;;;;5030345;28;8900;-70
2023/06/05 00:51:46;;;;;;;;;10.00;8.75;;;;;;;;5062453;28;8873;-71
2023/06/05 00:54:13;;;;;;;;;12.00;11.50;;;;;;;;5030151;28;8849;-71
2023/06/05 00:56:39;;;;;;;;;7.00;7.00;;;;;;;;5030152;28;8933;-70
2023/06/05 00:59:05;;;;;;;;;12.50;11.00;;;;;;;;5029976;28;10458;-71
2023/06/05 01:01:32;;;;;;;;;11.25;10.00;;;;;;;;5030109;28;8780;-71
2023/06/05 01:03:57;;;;;;;;;10.50;10.50;;;;;;;;5029601;28;11566;-71
2023/06/05 01:06:26;;;;;;;;;8.00;8.00;;;;;;;;5030025;28;10476;-70
2023/06/05 01:08:53;;;;;;;;;11.25;10.25;;;;;;;;5033138;28;8787;-71
2023/06/05 18:18:46;;;;;;;;;11.25;9.25;;;;;;;;5022620;27;2224015;-69
2023/06/05 18:21:12;;;;;;;;;4.25;3.00;;;;;;;;5081817;28;8816;-70
2023/06/05 18:23:40;;;;;;;;;6.50;6.00;;;;;;;;5069760;28;8816;-73
2023/06/05 18:26:06;;;;;;;;;9.00;4.75;;;;;;;;5084143;28;8798;-76
2023/06/05 18:28:31;;;;;;;;;0.75;0.50;;;;;;;;5082722;28;10000;-70
2023/06/05 18:30:57;;;;;;;;;5.00;4.00;;;;;;;;5084987;28;8816;-70
2023/06/05 18:33:22;;;;;;;;;4.75;2.25;;;;;;;;5087779;28;8896;-71
2023/06/05 18:35:47;;;;;;;;;4.25;4.00;;;;;;;;5087413;28;8804;-77
2023/06/05 18:38:12;;;;;;;;;2.50;2.50;;;;;;;;5069611;28;8897;-73
2023/06/05 18:40:38;;;;;;;;;4.00;4.00;;;;;;;;5054029;28;8831;-85
2023/06/05 18:43:04;;;;;;;;;4.50;3.00;;;;;;;;5067258;28;9537;-79
2023/06/05 18:45:29;;;;;;;;;4.00;4.00;;;;;;;;5067107;28;8860;-83
2023/06/05 18:47:54;;;;;;;;;3.00;2.00;;;;;;;;5075179;28;8893;-77
2023/06/05 18:50:21;;;;;;;;;3.75;3.75;;;;;;;;5073196;28;8879;-77
2023/06/05 18:52:47;;;;;;;;;5.50;3.50;;;;;;;;5075135;28;8895;-79
2023/06/05 18:55:13;;;;;;;;;10.50;8.50;;;;;;;;5057506;28;9861;-80
2023/06/05 18:57:38;;;;;;;;;7.75;7.25;;;;;;;;5076438;28;8863;-79
2023/06/05 19:00:04;;;;;;;;;3.75;3.00;;;;;;;;5072239;28;11408;-77
2023/06/05 19:02:29;;;;;;;;;3.00;2.25;;;;;;;;5057413;28;8802;-80
2023/06/05 19:04:55;;;;;;;;;2.00;1.75;;;;;;;;5078143;28;8861;-79
2023/06/05 19:07:20;;;;;;;;;4.00;3.00;;;;;;;;5076079;28;8896;-79
2023/06/05 19:09:45;;;;;;;;;4.00;2.25;;;;;;;;5076159;28;8806;-80
2023/06/05 19:12:11;;;;;;;;;3.50;3.50;;;;;;;;5083441;28;9506;-77
2023/06/05 19:14:36;;;;;;;;;3.00;3.00;;;;;;;;5086895;28;8792;-74
2023/06/05 19:17:01;;;;;;;;;2.50;2.50;;;;;;;;5086552;28;8796;-79
2023/06/05 19:19:27;;;;;;;;;3.00;3.00;;;;;;;;5062610;28;8841;-79
2023/06/05 19:21:52;;;;;;;;;3.50;3.50;;;;;;;;5066549;28;9572;-79
2023/06/05 19:24:17;;;;;;;;;4.00;4.00;;;;;;;;5066485;28;8886;-78
2023/06/05 19:26:44;;;;;;;;;4.00;4.00;;;;;;;;5073011;28;8818;-76
2023/06/05 19:29:09;;;;;;;;;4.00;4.00;;;;;;;;5049033;28;8997;-84
2023/06/05 19:31:36;;;;;;;;;4.50;3.75;;;;;;;;5053366;28;10424;-77
2023/06/05 19:34:01;;;;;;;;;3.75;3.75;;;;;;;;5053017;28;8798;-77
2023/06/05 19:36:26;;;;;;;;;5.00;4.00;;;;;;;;5069092;28;9498;-78
2023/06/05 19:38:52;;;;;;;;;8.00;4.25;;;;;;;;5054993;28;8800;-79
2023/06/05 19:41:17;;;;;;;;;4.25;4.25;;;;;;;;5051436;28;8840;-80
2023/06/05 19:43:45;;;;;;;;;6.75;5.50;;;;;;;;5072837;28;8820;-79
2023/06/05 19:46:10;;;;;;;;;3.00;3.00;;;;;;;;5072837;28;8796;-79
2023/06/05 19:48:36;;;;;;;;;6.25;4.00;;;;;;;;5072518;28;9687;-87
2023/06/05 19:51:01;;;;;;;;;5.25;5.25;;;;;;;;5054265;28;9549;-80
2023/06/05 19:53:26;;;;;;;;;3.50;3.50;;;;;;;;5034792;28;8941;-77
2023/06/05 19:55:51;;;;;;;;;4.25;4.25;;;;;;;;5053262;28;8786;-73
2023/06/05 19:58:16;;;;;;;;;4.00;4.00;;;;;;;;5071492;28;8954;-74
2023/06/05 20:00:42;;;;;;;;;4.50;4.00;;;;;;;;5058545;28;8823;-76
2023/06/05 20:03:07;;;;;;;;;1.00;1.00;;;;;;;;5052222;28;8807;-75
2023/06/05 20:05:32;;;;;;;;;3.50;3.50;;;;;;;;5043577;28;8824;-73
2023/06/05 20:07:58;;;;;;;;;3.00;3.00;;;;;;;;5066207;28;8838;-72
2023/06/05 20:10:23;;;;;;;;;5.00;3.00;;;;;;;;5060525;28;8790;-73
2023/06/05 20:12:48;;;;;;;;;3.00;3.00;;;;;;;;5062547;28;8817;-72
2023/06/05 20:15:14;;;;;;;;;5.00;5.00;;;;;;;;5064583;28;8807;-73
2023/06/05 20:17:39;;;;;;;;;5.25;4.75;;;;;;;;5043293;28;8852;-73
2023/06/05 20:20:06;;;;;;;;;4.50;4.25;;;;;;;;5058590;28;8930;-73
2023/06/05 20:22:31;;;;;;;;;2.75;2.75;;;;;;;;5059627;28;8821;-74
2023/06/05 20:24:57;;;;;;;;;6.00;3.00;;;;;;;;5047845;28;9500;-74
2023/06/05 20:27:22;;;;;;;;;3.00;3.00;;;;;;;;5062551;28;8807;-75
2023/06/05 20:29:48;;;;;;;;;6.25;6.25;;;;;;;;5062473;28;9565;-76
2023/06/05 20:32:13;;;;;;;;;7.00;6.00;;;;;;;;5060169;28;8784;-76
2023/06/05 20:34:38;;;;;;;;;5.50;5.50;;;;;;;;5043318;28;8826;-75
2023/06/05 20:37:04;;;;;;;;;6.00;6.00;;;;;;;;5062216;28;8812;-76
2023/06/05 20:39:30;;;;;;;;;6.25;6.25;;;;;;;;5060378;28;8868;-76
2023/06/05 20:41:57;;;;;;;;;8.50;6.75;;;;;;;;5042315;28;9550;-76
2023/06/05 20:44:23;;;;;;;;;6.00;6.00;;;;;;;;5061916;28;9841;-75
2023/06/05 20:46:52;;;;;;;;;7.50;6.50;;;;;;;;5041622;28;9802;-74
2023/06/05 20:49:20;;;;;;;;;7.00;6.75;;;;;;;;5060892;28;8780;-74
2023/06/05 20:51:46;;;;;;;;;6.00;4.00;;;;;;;;5062168;28;9787;-75
2023/06/05 20:54:11;;;;;;;;;39.00;33.25;;;;;;;;5041281;28;10551;-73
2023/06/05 20:56:36;;;;;;;;;19.25;14.50;;;;;;;;5060217;28;8788;-73
2023/06/05 20:59:02;;;;;;;;;7.75;7.00;;;;;;;;5046873;28;8824;-73
2023/06/05 21:01:29;;;;;;;;;4.00;4.00;;;;;;;;5063403;28;8976;-74
2023/06/05 21:03:54;;;;;;;;;4.50;4.50;;;;;;;;5066382;28;8788;-73
2023/06/05 21:06:20;;;;;;;;;6.00;6.00;;;;;;;;5043723;28;9915;-74
2023/06/05 21:08:45;;;;;;;;;4.00;4.00;;;;;;;;5058679;28;8852;-74
2023/06/05 21:11:11;;;;;;;;;6.00;4.00;;;;;;;;5059672;28;8896;-73
2023/06/05 21:13:36;;;;;;;;;6.25;3.50;;;;;;;;5059103;28;8796;-73
2023/06/05 21:16:02;;;;;;;;;7.00;6.50;;;;;;;;5060624;28;8824;-73
2023/06/05 21:18:27;;;;;;;;;6.50;5.50;;;;;;;;5058432;28;8814;-73
2023/06/05 21:20:53;;;;;;;;;2.50;2.50;;;;;;;;5060030;28;9888;-74
2023/06/05 21:23:18;;;;;;;;;8.75;7.50;;;;;;;;5060510;28;8902;-73
2023/06/05 21:25:43;;;;;;;;;6.25;6.00;;;;;;;;5059306;28;8963;-73
2023/06/05 21:28:08;;;;;;;;;5.50;4.00;;;;;;;;5043520;28;8809;-73
2023/06/05 21:30:34;;;;;;;;;7.25;6.25;;;;;;;;5059943;28;8798;-73
2023/06/05 21:32:59;;;;;;;;;9.00;5.50;;;;;;;;5059877;28;8784;-75
2023/06/05 21:35:27;;;;;;;;;6.75;3.75;;;;;;;;5061469;28;8806;-75
2023/06/05 21:37:52;;;;;;;;;6.75;4.00;;;;;;;;5059358;28;8889;-74
2023/06/05 21:40:17;;;;;;;;;5.75;4.25;;;;;;;;5059724;28;10734;-74
2023/06/05 21:42:43;;;;;;;;;3.75;3.00;;;;;;;;5061242;28;8820;-74
2023/06/05 21:45:08;;;;;;;;;6.25;3.00;;;;;;;;5059132;28;8799;-74
2023/06/05 21:47:34;;;;;;;;;4.00;3.75;;;;;;;;5042349;28;9536;-74
2023/06/05 21:49:59;;;;;;;;;7.00;4.50;;;;;;;;5060512;28;8783;-73
2023/06/05 21:52:24;;;;;;;;;3.75;3.75;;;;;;;;5040965;28;8948;-74
2023/06/05 21:54:50;;;;;;;;;6.50;4.25;;;;;;;;5060549;28;8977;-74
2023/06/05 21:57:15;;;;;;;;;3.50;3.50;;;;;;;;5060079;28;8825;-74
2023/06/05 21:59:41;;;;;;;;;6.00;5.50;;;;;;;;5059369;28;8808;-74
2023/06/05 22:02:06;;;;;;;;;4.50;4.50;;;;;;;;5042907;28;11555;-74
2023/06/05 22:04:33;;;;;;;;;9.00;6.50;;;;;;;;5059522;28;8798;-74
2023/06/05 22:06:58;;;;;;;;;6.00;5.50;;;;;;;;5061849;28;9557;-73
2023/06/05 22:09:23;;;;;;;;;7.00;6.25;;;;;;;;5058844;28;10191;-74
2023/06/05 22:11:49;;;;;;;;;8.75;7.00;;;;;;;;5040517;28;9544;-73
2023/06/05 22:14:17;;;;;;;;;6.25;3.00;;;;;;;;5042189;28;8884;-73
2023/06/05 22:16:42;;;;;;;;;8.00;8.00;;;;;;;;5042712;28;8802;-74
2023/06/05 22:19:19;;;;;;;;;7.00;6.25;;;;;;;;5058701;28;10494;-74
2023/06/05 22:21:45;;;;;;;;;7.25;6.50;;;;;;;;5040942;28;8841;-73
2023/06/05 22:24:11;;;;;;;;;5.50;5.25;;;;;;;;5060640;28;10400;-74
2023/06/05 22:26:36;;;;;;;;;9.25;7.00;;;;;;;;5059716;28;8817;-73
2023/06/05 22:29:02;;;;;;;;;8.00;6.50;;;;;;;;5058721;28;8802;-73
2023/06/05 22:31:28;;;;;;;;;6.75;6.00;;;;;;;;5039851;28;8816;-73
2023/06/05 22:33:53;;;;;;;;;6.00;6.00;;;;;;;;5059254;28;10213;-73
2023/06/05 22:36:19;;;;;;;;;8.25;6.00;;;;;;;;5061512;28;8815;-73
2023/06/05 22:38:46;;;;;;;;;9.00;7.00;;;;;;;;5058382;28;8869;-73
2023/06/05 22:41:12;;;;;;;;;7.75;7.00;;;;;;;;5060470;28;8800;-73
2023/06/05 22:43:37;;;;;;;;;6.25;6.25;;;;;;;;5060705;28;10320;-73
2023/06/05 22:46:03;;;;;;;;;7.00;6.00;;;;;;;;5060556;28;10551;-73
2023/06/05 22:48:31;;;;;;;;;6.25;5.25;;;;;;;;5042512;28;8859;-74
2023/06/05 22:50:57;;;;;;;;;7.00;6.00;;;;;;;;5059257;28;8814;-74
2023/06/05 22:53:24;;;;;;;;;6.50;6.50;;;;;;;;5058676;28;10353;-74
2023/06/05 22:55:49;;;;;;;;;6.75;6.50;;;;;;;;5060556;28;10224;-74
2023/06/05 22:58:15;;;;;;;;;7.25;5.50;;;;;;;;5059473;28;10825;-74
2023/06/05 23:00:42;;;;;;;;;6.00;5.75;;;;;;;;5058823;28;8785;-74
2023/06/05 23:03:07;;;;;;;;;6.00;6.00;;;;;;;;5042590;28;8808;-75
2023/06/05 23:05:33;;;;;;;;;7.00;6.00;;;;;;;;5064515;28;10086;-74
2023/06/05 23:07:58;;;;;;;;;9.25;7.00;;;;;;;;5062674;28;8844;-73
2023/06/05 23:10:23;;;;;;;;;7.25;7.00;;;;;;;;5063789;28;8868;-75
2023/06/05 23:12:49;;;;;;;;;7.75;7.00;;;;;;;;5044038;28;8830;-75
2023/06/05 23:15:18;;;;;;;;;8.50;8.00;;;;;;;;5063430;28;8796;-75
2023/06/05 23:17:43;;;;;;;;;6.25;5.00;;;;;;;;5063785;28;8867;-75
2023/06/05 23:20:09;;;;;;;;;8.00;7.00;;;;;;;;5061705;28;10278;-75
2023/06/05 23:22:35;;;;;;;;;5.00;5.00;;;;;;;;5063141;28;8934;-74
2023/06/05 23:25:00;;;;;;;;;10.00;6.50;;;;;;;;5062945;28;10145;-75
2023/06/05 23:27:25;;;;;;;;;7.50;6.75;;;;;;;;5061608;28;8814;-75
2023/06/05 23:29:50;;;;;;;;;6.75;6.00;;;;;;;;5063784;28;8792;-74
2023/06/05 23:32:16;;;;;;;;;8.50;7.25;;;;;;;;5062580;28;8809;-75
2023/06/05 23:34:41;;;;;;;;;10.50;7.75;;;;;;;;5045957;28;8804;-75
2023/06/05 23:37:08;;;;;;;;;7.50;7.50;;;;;;;;5061580;28;8790;-74
2023/06/05 23:39:33;;;;;;;;;6.25;6.25;;;;;;;;5063254;28;8784;-75
2023/06/05 23:41:58;;;;;;;;;7.00;7.00;;;;;;;;5062310;28;10424;-74
2023/06/05 23:44:23;;;;;;;;;9.00;6.00;;;;;;;;5061737;28;8777;-75
2023/06/05 23:46:49;;;;;;;;;11.00;8.00;;;;;;;;5063386;28;8844;-75
2023/06/05 23:49:14;;;;;;;;;6.25;5.25;;;;;;;;5062133;28;8775;-75
2023/06/05 23:51:40;;;;;;;;;6.00;6.00;;;;;;;;5062105;28;8804;-74
2023/06/05 23:54:05;;;;;;;;;8.75;7.00;;;;;;;;5063516;28;8800;-75
2023/06/05 23:56:30;;;;;;;;;7.50;7.50;;;;;;;;5061488;28;8794;-75
2023/06/05 23:58:56;;;;;;;;;9.75;7.50;;;;;;;;5064056;28;8794;-75
